Terminal Aerodrome Forecast
Issued by NWS

Home | Current Version | Previous Version | Text Only | Print | Product List | Glossary On
Versions: 1 2 3 4 5 6 7 8 9 10 11 12 13 14 15 16 17 18 19 20 21 22 23 24 25 26 27 28 29
613
FTUS43 KBIS 250200 AAB
TAFMOT
TAF AMD
KMOT 250200Z 2502/2524 29013KT P6SM BKN003
     FM250400 31015KT P6SM VCSH OVC004
     FM250600 32016G22KT P6SM VCSH OVC002
     FM251000 32021G29KT P6SM -SHRA OVC008
     FM251400 30023G34KT P6SM BKN035
     FM251700 29025G35KT P6SM SCT050
     FM252300 30017G24KT P6SM SKC=

USA.gov is the U.S. government's official web portal to all federal, state and local government web resources and services.